EZS84BA GMMX-LSGG
Flight info
| Callsign | EZS84BA |
|---|---|
| Flight time | N/A |
| Altitude | 36000 |
| Route | MABAP UR722 SAK UG5 KORIS L27 MAR DCT ALCOL N871 TOPTU DCT TOU DCT GAI/N0419F340 DCT MEN/N0405F300 DCT NINUN DCT LATAM DCT ETREK DCT LUXAN G53 LTP Z16 BELUS |
| Aircraft | A320/M-SDE3FGHIRWY/LB1 |
Departure
| Time | N/A |
|---|---|
| Airport | Marrakesh Menara Airport (GMMX) |
Arrival
| Time | 2026-05-03 21:10 |
|---|---|
| Airport | Geneva International Airport (LSGG) |
| Time | Latitude | Longitude | Altitude | Speed | Heading |
|---|---|---|---|---|---|
| 2026-05-03 20:15 | 42.61203 | -0.22899 | 36062 ft | 482 kts | 50° |
| 2026-05-03 20:15 | 42.65526 | -0.15968 | 36095 ft | 482 kts | 50° |
| 2026-05-03 20:15 | 42.67690 | -0.12479 | 36214 ft | 483 kts | 50° |
| 2026-05-03 20:16 | 42.69861 | -0.08971 | 36393 ft | 486 kts | 50° |
| 2026-05-03 20:16 | 42.72046 | -0.05451 | 36658 ft | 487 kts | 50° |
| 2026-05-03 20:16 | 42.74232 | -0.01939 | 36896 ft | 486 kts | 50° |
| 2026-05-03 20:16 | 42.76380 | 0.01528 | 37115 ft | 486 kts | 49° |
| 2026-05-03 20:17 | 42.78582 | 0.05094 | 37321 ft | 485 kts | 49° |
| 2026-05-03 20:17 | 42.80718 | 0.08562 | 37538 ft | 485 kts | 49° |
| 2026-05-03 20:17 | 42.82912 | 0.12128 | 37716 ft | 484 kts | 49° |
| 2026-05-03 20:17 | 42.85075 | 0.15649 | 37872 ft | 484 kts | 49° |
| 2026-05-03 20:18 | 42.87206 | 0.19123 | 37992 ft | 485 kts | 49° |
| 2026-05-03 20:18 | 42.91566 | 0.26222 | 38013 ft | 484 kts | 49° |
| 2026-05-03 20:19 | 42.95893 | 0.33274 | 37997 ft | 485 kts | 49° |
| 2026-05-03 20:19 | 43.00196 | 0.40315 | 37997 ft | 485 kts | 49° |
| 2026-05-03 20:20 | 43.04506 | 0.47380 | 37983 ft | 484 kts | 49° |
| 2026-05-03 20:20 | 43.08813 | 0.54466 | 37990 ft | 484 kts | 49° |
| 2026-05-03 20:21 | 43.13113 | 0.61566 | 37976 ft | 485 kts | 49° |
| 2026-05-03 20:21 | 43.17445 | 0.68719 | 37981 ft | 485 kts | 49° |
| 2026-05-03 20:22 | 43.21720 | 0.75790 | 37980 ft | 485 kts | 49° |
| 2026-05-03 20:22 | 43.26009 | 0.82913 | 37981 ft | 484 kts | 50° |
| 2026-05-03 20:23 | 43.30285 | 0.90043 | 37982 ft | 483 kts | 50° |
| 2026-05-03 20:23 | 43.34548 | 0.97167 | 37981 ft | 482 kts | 50° |
| 2026-05-03 20:24 | 43.38797 | 1.04289 | 37986 ft | 482 kts | 50° |
| 2026-05-03 20:24 | 43.43048 | 1.11416 | 37995 ft | 482 kts | 50° |
| 2026-05-03 20:25 | 43.47300 | 1.18539 | 37981 ft | 481 kts | 50° |
| 2026-05-03 20:25 | 43.51529 | 1.25648 | 37986 ft | 479 kts | 50° |
| 2026-05-03 20:26 | 43.55739 | 1.32765 | 37982 ft | 478 kts | 51° |
| 2026-05-03 20:26 | 43.59935 | 1.39878 | 37992 ft | 478 kts | 51° |
| 2026-05-03 20:27 | 43.64121 | 1.46985 | 38005 ft | 477 kts | 51° |
| 2026-05-03 20:27 | 43.68305 | 1.54103 | 37972 ft | 477 kts | 51° |
| 2026-05-03 20:28 | 43.72476 | 1.61233 | 37977 ft | 476 kts | 51° |
| 2026-05-03 20:28 | 43.76641 | 1.68357 | 37974 ft | 476 kts | 51° |
| 2026-05-03 20:29 | 43.80797 | 1.75477 | 37977 ft | 475 kts | 51° |
| 2026-05-03 20:29 | 43.84923 | 1.82562 | 37979 ft | 476 kts | 51° |
| 2026-05-03 20:30 | 43.89075 | 1.89705 | 37968 ft | 476 kts | 51° |
| 2026-05-03 20:30 | 43.93220 | 1.96872 | 37959 ft | 477 kts | 51° |
| 2026-05-03 20:31 | 43.97367 | 2.04060 | 37972 ft | 478 kts | 51° |
| 2026-05-03 20:31 | 44.00844 | 2.10095 | 37980 ft | 478 kts | 51° |
| 2026-05-03 20:32 | 44.04991 | 2.17306 | 37993 ft | 478 kts | 51° |
| 2026-05-03 20:32 | 44.09141 | 2.24530 | 37987 ft | 478 kts | 51° |
| 2026-05-03 20:33 | 44.13277 | 2.31761 | 37977 ft | 477 kts | 51° |
| 2026-05-03 20:33 | 44.17407 | 2.39013 | 37981 ft | 477 kts | 52° |
| 2026-05-03 20:34 | 44.21524 | 2.46238 | 38014 ft | 478 kts | 52° |
| 2026-05-03 20:34 | 44.25652 | 2.53499 | 38010 ft | 478 kts | 52° |
| 2026-05-03 20:35 | 44.29775 | 2.60782 | 38032 ft | 478 kts | 52° |
| 2026-05-03 20:35 | 44.33895 | 2.68073 | 38017 ft | 478 kts | 52° |
| 2026-05-03 20:36 | 44.38007 | 2.75378 | 38034 ft | 478 kts | 52° |
| 2026-05-03 20:36 | 44.42120 | 2.82696 | 38049 ft | 478 kts | 52° |
| 2026-05-03 20:37 | 44.46203 | 2.89968 | 38047 ft | 479 kts | 52° |
| 2026-05-03 20:37 | 44.50314 | 2.97300 | 38057 ft | 478 kts | 52° |
| 2026-05-03 20:38 | 44.54409 | 3.04647 | 38056 ft | 478 kts | 52° |
| 2026-05-03 20:38 | 44.58479 | 3.11992 | 38064 ft | 477 kts | 52° |
| 2026-05-03 20:39 | 44.62220 | 3.19647 | 38059 ft | 475 kts | 62° |
| 2026-05-03 20:39 | 44.65467 | 3.27731 | 38061 ft | 475 kts | 62° |
| 2026-05-03 20:40 | 44.68709 | 3.35830 | 38072 ft | 476 kts | 62° |
| 2026-05-03 20:40 | 44.71944 | 3.43936 | 38069 ft | 476 kts | 62° |
| 2026-05-03 20:41 | 44.75179 | 3.52051 | 38074 ft | 476 kts | 62° |
| 2026-05-03 20:41 | 44.78406 | 3.60171 | 38072 ft | 475 kts | 62° |
| 2026-05-03 20:42 | 44.81627 | 3.68299 | 38062 ft | 476 kts | 62° |
| 2026-05-03 20:42 | 44.84841 | 3.76451 | 38063 ft | 476 kts | 62° |
| 2026-05-03 20:43 | 44.88053 | 3.84612 | 38053 ft | 476 kts | 62° |
| 2026-05-03 20:43 | 44.91268 | 3.92779 | 38059 ft | 476 kts | 62° |
| 2026-05-03 20:44 | 44.94470 | 4.00957 | 38068 ft | 476 kts | 62° |
| 2026-05-03 20:44 | 44.97667 | 4.09150 | 38069 ft | 476 kts | 62° |
| 2026-05-03 20:45 | 45.00848 | 4.17325 | 38070 ft | 476 kts | 63° |
| 2026-05-03 20:45 | 45.04015 | 4.25492 | 38056 ft | 477 kts | 62° |
| 2026-05-03 20:46 | 45.07192 | 4.33718 | 38054 ft | 477 kts | 62° |
| 2026-05-03 20:46 | 45.10372 | 4.41954 | 38066 ft | 477 kts | 62° |
| 2026-05-03 20:47 | 45.13543 | 4.50195 | 38075 ft | 477 kts | 63° |
| 2026-05-03 20:47 | 45.16700 | 4.58454 | 38070 ft | 477 kts | 63° |
| 2026-05-03 20:48 | 45.19851 | 4.66714 | 38048 ft | 476 kts | 63° |
| 2026-05-03 20:48 | 45.23011 | 4.74987 | 37623 ft | 476 kts | 62° |
| 2026-05-03 20:48 | 45.24587 | 4.79108 | 37001 ft | 474 kts | 63° |
| 2026-05-03 20:49 | 45.26156 | 4.83221 | 36345 ft | 475 kts | 63° |
| 2026-05-03 20:49 | 45.27721 | 4.87342 | 35806 ft | 472 kts | 63° |
| 2026-05-03 20:49 | 45.29270 | 4.91436 | 35345 ft | 469 kts | 63° |
| 2026-05-03 20:49 | 45.30803 | 4.95506 | 34870 ft | 466 kts | 63° |
| 2026-05-03 20:50 | 45.32320 | 4.99546 | 34317 ft | 460 kts | 63° |
| 2026-05-03 20:50 | 45.33817 | 5.03532 | 33458 ft | 455 kts | 63° |
| 2026-05-03 20:50 | 45.35298 | 5.07475 | 32646 ft | 449 kts | 63° |
| 2026-05-03 20:50 | 45.36758 | 5.11366 | 31864 ft | 444 kts | 63° |
| 2026-05-03 20:51 | 45.38205 | 5.15214 | 31102 ft | 438 kts | 63° |
| 2026-05-03 20:51 | 45.39633 | 5.19011 | 30364 ft | 433 kts | 63° |
| 2026-05-03 20:51 | 45.41047 | 5.22776 | 29533 ft | 428 kts | 63° |
| 2026-05-03 20:51 | 45.42422 | 5.26446 | 28722 ft | 423 kts | 63° |
| 2026-05-03 20:52 | 45.43809 | 5.30166 | 27931 ft | 418 kts | 63° |
| 2026-05-03 20:52 | 45.45135 | 5.33736 | 27184 ft | 412 kts | 63° |
| 2026-05-03 20:52 | 45.46466 | 5.37323 | 26436 ft | 407 kts | 63° |
| 2026-05-03 20:52 | 45.47861 | 5.40808 | 25711 ft | 403 kts | 56° |
| 2026-05-03 20:53 | 45.49646 | 5.43843 | 25020 ft | 398 kts | 43° |
| 2026-05-03 20:53 | 45.51782 | 5.46276 | 24319 ft | 393 kts | 31° |
| 2026-05-03 20:53 | 45.54122 | 5.48234 | 23620 ft | 388 kts | 29° |
| 2026-05-03 20:53 | 45.56448 | 5.50155 | 22824 ft | 384 kts | 29° |
| 2026-05-03 20:54 | 45.58738 | 5.52061 | 22116 ft | 379 kts | 30° |
| 2026-05-03 20:54 | 45.63230 | 5.55817 | 20764 ft | 369 kts | 30° |
| 2026-05-03 20:54 | 45.65429 | 5.57654 | 20117 ft | 363 kts | 30° |
| 2026-05-03 20:55 | 45.67595 | 5.59456 | 19512 ft | 358 kts | 30° |
| 2026-05-03 20:55 | 45.69746 | 5.61208 | 18919 ft | 353 kts | 28° |
| 2026-05-03 20:55 | 45.71877 | 5.62895 | 18335 ft | 348 kts | 28° |
| 2026-05-03 20:55 | 45.73987 | 5.64544 | 17668 ft | 344 kts | 28° |
| 2026-05-03 20:56 | 45.76077 | 5.66173 | 17010 ft | 340 kts | 28° |
| 2026-05-03 20:56 | 45.78148 | 5.67792 | 16384 ft | 337 kts | 28° |
| 2026-05-03 20:56 | 45.80195 | 5.69401 | 15749 ft | 335 kts | 28° |
| 2026-05-03 20:56 | 45.82230 | 5.71008 | 15134 ft | 332 kts | 28° |
| 2026-05-03 20:57 | 45.84243 | 5.72603 | 14566 ft | 329 kts | 29° |
| 2026-05-03 20:57 | 45.86235 | 5.74191 | 14281 ft | 327 kts | 31° |
| 2026-05-03 20:57 | 45.88116 | 5.76158 | 14103 ft | 346 kts | 43° |
| 2026-05-03 20:57 | 45.89752 | 5.78798 | 14057 ft | 361 kts | 55° |
| 2026-05-03 20:58 | 45.91262 | 5.81810 | 14066 ft | 379 kts | 55° |
| 2026-05-03 20:58 | 45.92820 | 5.84899 | 14070 ft | 383 kts | 55° |
| 2026-05-03 20:58 | 45.94393 | 5.87996 | 14072 ft | 384 kts | 55° |
| 2026-05-03 20:58 | 45.96091 | 5.90953 | 14086 ft | 385 kts | 46° |
| 2026-05-03 20:59 | 45.97996 | 5.93667 | 14074 ft | 386 kts | 45° |
| 2026-05-03 20:59 | 45.99899 | 5.96387 | 14066 ft | 386 kts | 45° |
| 2026-05-03 20:59 | 46.01804 | 5.99113 | 14089 ft | 387 kts | 45° |
| 2026-05-03 20:59 | 46.03696 | 6.01828 | 14082 ft | 385 kts | 45° |
| 2026-05-03 21:00 | 46.05579 | 6.04549 | 14076 ft | 384 kts | 45° |
| 2026-05-03 21:00 | 46.06191 | 6.05434 | 14076 ft | 384 kts | 45° |
| 2026-05-03 21:00 | 46.09348 | 6.10006 | 14081 ft | 384 kts | 45° |
| 2026-05-03 21:00 | 46.11224 | 6.12741 | 14079 ft | 384 kts | 46° |
| 2026-05-03 21:01 | 46.13088 | 6.15494 | 14006 ft | 385 kts | 46° |
| 2026-05-03 21:01 | 46.14944 | 6.18253 | 13669 ft | 382 kts | 46° |
| 2026-05-03 21:01 | 46.16788 | 6.21006 | 13328 ft | 380 kts | 46° |
| 2026-05-03 21:01 | 46.18604 | 6.23720 | 13011 ft | 371 kts | 46° |
| 2026-05-03 21:02 | 46.20366 | 6.26342 | 12695 ft | 357 kts | 46° |
| 2026-05-03 21:02 | 46.22082 | 6.28870 | 12336 ft | 346 kts | 46° |
| 2026-05-03 21:02 | 46.23714 | 6.31260 | 12101 ft | 327 kts | 46° |
| 2026-05-03 21:02 | 46.25279 | 6.33550 | 11686 ft | 316 kts | 47° |
| 2026-05-03 21:03 | 46.26807 | 6.35790 | 11109 ft | 311 kts | 47° |
| 2026-05-03 21:03 | 46.28319 | 6.38004 | 10450 ft | 306 kts | 47° |
| 2026-05-03 21:03 | 46.29813 | 6.40185 | 9512 ft | 305 kts | 47° |
| 2026-05-03 21:03 | 46.31300 | 6.42348 | 8553 ft | 301 kts | 47° |
| 2026-05-03 21:04 | 46.32792 | 6.44410 | 7683 ft | 293 kts | 37° |
| 2026-05-03 21:04 | 46.34600 | 6.45620 | 6924 ft | 284 kts | 9° |
| 2026-05-03 21:04 | 46.36486 | 6.45377 | 6589 ft | 268 kts | 336° |
| 2026-05-03 21:04 | 46.37955 | 6.43904 | 6351 ft | 259 kts | 310° |
| 2026-05-03 21:05 | 46.38893 | 6.41743 | 6101 ft | 250 kts | 288° |
| 2026-05-03 21:05 | 46.39277 | 6.39350 | 5856 ft | 239 kts | 269° |
| 2026-05-03 21:05 | 46.39154 | 6.37025 | 5670 ft | 226 kts | 251° |
| 2026-05-03 21:05 | 46.38673 | 6.34888 | 5374 ft | 223 kts | 248° |
| 2026-05-03 21:06 | 46.38157 | 6.32772 | 5092 ft | 220 kts | 247° |
| 2026-05-03 21:06 | 46.37430 | 6.30871 | 4800 ft | 218 kts | 227° |
| 2026-05-03 21:06 | 46.36362 | 6.29322 | 4430 ft | 211 kts | 223° |
| 2026-05-03 21:06 | 46.35343 | 6.27898 | 4196 ft | 199 kts | 224° |
| 2026-05-03 21:07 | 46.34386 | 6.26495 | 4067 ft | 190 kts | 225° |
| 2026-05-03 21:07 | 46.33484 | 6.25139 | 3821 ft | 185 kts | 225° |
| 2026-05-03 21:07 | 46.32589 | 6.23813 | 3516 ft | 184 kts | 225° |
| 2026-05-03 21:07 | 46.31719 | 6.22527 | 3258 ft | 172 kts | 225° |
| 2026-05-03 21:08 | 46.30931 | 6.21338 | 3090 ft | 154 kts | 226° |
| 2026-05-03 21:08 | 46.30200 | 6.20265 | 2813 ft | 146 kts | 224° |
| 2026-05-03 21:08 | 46.29492 | 6.19247 | 2590 ft | 142 kts | 224° |
| 2026-05-03 21:08 | 46.28795 | 6.18244 | 2466 ft | 141 kts | 225° |
| 2026-05-03 21:09 | 46.28118 | 6.17223 | 2306 ft | 141 kts | 227° |
| 2026-05-03 21:09 | 46.27434 | 6.16216 | 2112 ft | 140 kts | 225° |
| 2026-05-03 21:09 | 46.26741 | 6.15236 | 1931 ft | 140 kts | 226° |
| 2026-05-03 21:09 | 46.26070 | 6.14222 | 1730 ft | 139 kts | 226° |
| 2026-05-03 21:10 | 46.25389 | 6.13232 | 1521 ft | 139 kts | 227° |
| 2026-05-03 21:10 | 46.24720 | 6.12240 | 1371 ft | 133 kts | 225° |
| 2026-05-03 21:10 | 46.24187 | 6.11453 | 1374 ft | 84 kts | 225° |
| 2026-05-03 21:10 | 46.23895 | 6.11025 | 1379 ft | 38 kts | 225° |
| 2026-05-03 21:11 | 46.23728 | 6.10802 | 1379 ft | 27 kts | 216° |
| 2026-05-03 21:11 | 46.23579 | 6.10715 | 1381 ft | 16 kts | 195° |
| 2026-05-03 21:11 | 46.23512 | 6.10692 | 1384 ft | 6 kts | 193° |
| 2026-05-03 21:11 | 46.23492 | 6.10686 | 1389 ft | 0 kts | 193° |
| 2026-05-03 21:12 | 46.23491 | 6.10685 | 1389 ft | 0 kts | 194° |
| 2026-05-03 21:12 | 46.23464 | 6.10675 | 1390 ft | 12 kts | 195° |
| 2026-05-03 21:12 | 46.23384 | 6.10618 | 1392 ft | 13 kts | 219° |
| 2026-05-03 21:12 | 46.23321 | 6.10526 | 1399 ft | 13 kts | 226° |
| 2026-05-03 21:13 | 46.23253 | 6.10425 | 1393 ft | 15 kts | 226° |
| 2026-05-03 21:13 | 46.23179 | 6.10318 | 1393 ft | 14 kts | 224° |
| 2026-05-03 21:13 | 46.23123 | 6.10227 | 1399 ft | 12 kts | 229° |
| 2026-05-03 21:13 | 46.23063 | 6.10158 | 1394 ft | 10 kts | 184° |
| 2026-05-03 21:14 | 46.23012 | 6.10219 | 1395 ft | 9 kts | 134° |
| 2026-05-03 21:14 | 46.22970 | 6.10280 | 1405 ft | 8 kts | 136° |
| 2026-05-03 21:14 | 46.22952 | 6.10340 | 1393 ft | 6 kts | 79° |
| 2026-05-03 21:14 | 46.22975 | 6.10380 | 1393 ft | 5 kts | 47° |
| 2026-05-03 21:15 | 46.22996 | 6.10403 | 1407 ft | 3 kts | 22° |
| 2026-05-03 21:15 | 46.23014 | 6.10405 | 1393 ft | 2 kts | 2° |
| 2026-05-03 21:15 | 46.23031 | 6.10406 | 1401 ft | 3 kts | 1° |
| 2026-05-03 21:15 | 46.23051 | 6.10406 | 1393 ft | 2 kts | 0° |
| 2026-05-03 21:16 | 46.23063 | 6.10406 | 1393 ft | 1 kts | 0° |
| 2026-05-03 21:16 | 46.23066 | 6.10406 | 1393 ft | 0 kts | 0° |